createdAt,value
2023-04-16T00:02:30.749Z,100149.78
2023-04-16T00:05:33.237Z,100155.53
2023-04-16T00:08:35.973Z,100137.41
2023-04-16T00:11:38.291Z,100141.81
2023-04-16T00:14:40.684Z,100146.41
2023-04-16T00:17:43.038Z,100150.06
2023-04-16T00:20:45.368Z,100159.75
2023-04-16T00:23:47.721Z,100160.47
2023-04-16T00:26:49.956Z,100160.50
2023-04-16T00:29:52.221Z,100161.28
2023-04-16T00:32:54.523Z,100156.78
2023-04-16T00:35:57.164Z,100169.69
2023-04-16T00:38:59.473Z,100153.66
2023-04-16T00:42:01.981Z,100166.50
2023-04-16T00:45:05.670Z,100162.03
2023-04-16T00:48:08.008Z,100159.94
2023-04-16T00:51:10.959Z,100159.91
2023-04-16T00:54:13.263Z,100163.34
2023-04-16T00:57:15.740Z,100164.13
2023-04-16T01:00:18.140Z,100151.81
2023-04-16T01:03:20.753Z,100146.84
2023-04-16T01:06:23.961Z,100153.38
2023-04-16T01:09:26.420Z,100161.75
2023-04-16T01:12:28.667Z,100158.84
2023-04-16T01:15:30.931Z,100163.31
2023-04-16T01:18:33.432Z,100170.38
2023-04-16T01:21:36.010Z,100173.81
2023-04-16T01:24:38.515Z,100173.22
2023-04-16T01:27:41.031Z,100169.06
2023-04-16T01:30:43.780Z,100163.81
2023-04-16T01:34:12.442Z,100164.06
2023-04-16T01:37:14.941Z,100169.31
2023-04-16T01:40:17.886Z,100165.38
2023-04-16T01:43:20.181Z,100173.50
2023-04-16T01:46:28.168Z,100172.69
2023-04-16T01:49:30.830Z,100163.72
2023-04-16T01:52:33.124Z,100175.56
2023-04-16T01:55:35.662Z,100177.34
2023-04-16T01:58:38.559Z,100172.59
2023-04-16T02:01:42.144Z,100178.31
2023-04-16T02:04:45.838Z,100175.47
2023-04-16T02:07:48.128Z,100171.03
2023-04-16T02:10:51.807Z,100172.59
2023-04-16T02:13:54.100Z,100165.47
2023-04-16T02:16:56.764Z,100176.41
2023-04-16T02:20:18.521Z,100187.34
2023-04-16T02:23:28.103Z,100183.28
2023-04-16T02:26:32.113Z,100186.16
2023-04-16T02:29:40.739Z,100176.31
2023-04-16T02:32:49.858Z,100178.13
2023-04-16T02:35:53.238Z,100186.38
2023-04-16T02:38:55.752Z,100191.53
2023-04-16T02:41:59.481Z,100180.78
2023-04-16T02:45:02.266Z,100195.63
2023-04-16T02:48:04.811Z,100196.47
2023-04-16T02:51:07.219Z,100183.94
2023-04-16T02:54:09.728Z,100191.19
2023-04-16T02:57:11.990Z,100184.88
2023-04-16T03:00:14.467Z,100189.91
2023-04-16T03:03:17.018Z,100185.22
2023-04-16T03:06:19.400Z,100186.28
2023-04-16T03:09:21.863Z,100184.09
2023-04-16T03:12:24.191Z,100196.81
2023-04-16T03:15:29.602Z,100202.22
2023-04-16T03:18:32.143Z,100198.53
2023-04-16T03:21:34.481Z,100194.78
2023-04-16T03:24:37.731Z,100206.66
2023-04-16T03:27:40.124Z,100208.59
2023-04-16T03:30:42.480Z,100213.16
2023-04-16T03:33:45.065Z,100204.88
2023-04-16T03:36:49.652Z,100226.50
2023-04-16T03:39:52.681Z,100231.34
2023-04-16T03:42:54.931Z,100241.88
2023-04-16T03:45:57.382Z,100246.22
2023-04-16T03:49:00.537Z,100257.28
2023-04-16T03:52:03.933Z,100247.03
2023-04-16T03:55:06.933Z,100243.06
2023-04-16T03:58:10.071Z,100243.13
2023-04-16T04:01:12.420Z,100263.53
2023-04-16T04:04:17.820Z,100259.09
2023-04-16T04:07:20.264Z,100268.38
2023-04-16T04:10:22.737Z,100264.56
2023-04-16T04:13:25.194Z,100258.09
2023-04-16T04:16:28.529Z,100262.34
2023-04-16T04:19:30.863Z,100264.72
2023-04-16T04:22:33.525Z,100257.13
2023-04-16T04:25:36.078Z,100264.22
2023-04-16T04:28:38.406Z,100256.38
2023-04-16T04:31:41.119Z,100260.88
2023-04-16T04:34:43.514Z,100265.81
2023-04-16T04:37:46.230Z,100274.28
2023-04-16T04:40:53.143Z,100275.78
2023-04-16T04:43:56.929Z,100285.47
2023-04-16T04:47:00.896Z,100280.75
2023-04-16T04:50:03.512Z,100274.09
2023-04-16T04:53:10.354Z,100275.91
2023-04-16T04:56:13.551Z,100283.56
2023-04-16T04:59:16.464Z,100295.03
2023-04-16T05:02:19.815Z,100280.72
2023-04-16T05:05:22.385Z,100279.19
2023-04-16T05:08:24.733Z,100295.22
2023-04-16T05:11:27.217Z,100277.84
2023-04-16T05:14:29.527Z,100298.78
2023-04-16T05:17:31.809Z,100303.97
2023-04-16T05:20:34.273Z,100295.56
2023-04-16T05:23:36.619Z,100293.28
2023-04-16T05:26:38.916Z,100298.59
2023-04-16T05:29:41.417Z,100291.03
2023-04-16T05:32:43.772Z,100297.34
2023-04-16T05:35:46.203Z,100301.38
2023-04-16T05:38:51.418Z,100307.72
2023-04-16T05:41:53.724Z,100299.84
2023-04-16T05:44:59.059Z,100324.88
2023-04-16T05:48:01.515Z,100333.81
2023-04-16T05:51:04.197Z,100326.16
2023-04-16T05:54:06.587Z,100339.06
2023-04-16T05:57:08.843Z,100338.81
2023-04-16T06:00:11.362Z,100339.91
2023-04-16T06:03:16.285Z,100342.31
2023-04-16T06:06:18.701Z,100334.94
2023-04-16T06:09:20.974Z,100343.88
2023-04-16T06:12:23.249Z,100351.81
2023-04-16T06:15:25.953Z,100335.84
2023-04-16T06:18:28.287Z,100338.50
2023-04-16T06:21:31.848Z,100335.34
2023-04-16T06:24:34.253Z,100336.94
2023-04-16T06:27:37.430Z,100341.41
2023-04-16T06:30:41.157Z,100336.44
2023-04-16T06:33:44.496Z,100337.47
2023-04-16T06:36:46.860Z,100325.69
2023-04-16T06:39:49.047Z,100338.81
2023-04-16T06:42:54.639Z,100339.00
2023-04-16T06:45:56.925Z,100330.78
2023-04-16T06:48:59.133Z,100331.97
2023-04-16T06:52:03.325Z,100333.53
2023-04-16T06:55:09.867Z,100325.75
2023-04-16T06:58:12.177Z,100335.94
2023-04-16T07:01:15.662Z,100329.28
2023-04-16T07:04:18.319Z,100328.22
2023-04-16T07:07:20.748Z,100321.91
2023-04-16T07:10:23.330Z,100338.16
2023-04-16T07:13:26.297Z,100338.63
2023-04-16T07:16:28.631Z,100346.31
2023-04-16T07:19:32.835Z,100344.03
2023-04-16T07:22:35.400Z,100339.97
2023-04-16T07:25:37.722Z,100346.19
2023-04-16T07:28:39.977Z,100337.25
2023-04-16T07:31:42.388Z,100348.13
2023-04-16T07:34:44.732Z,100337.03
2023-04-16T07:37:46.997Z,100347.97
2023-04-16T07:40:49.292Z,100338.47
2023-04-16T07:43:51.556Z,100351.66
2023-04-16T07:46:54.005Z,100342.09
2023-04-16T07:49:56.384Z,100339.16
2023-04-16T07:52:58.708Z,100338.47
2023-04-16T07:56:01.036Z,100343.72
2023-04-16T07:59:18.501Z,100337.13
2023-04-16T08:02:24.049Z,100322.78
2023-04-16T08:05:26.444Z,100347.91
2023-04-16T08:08:29.790Z,100349.03
2023-04-16T08:11:32.210Z,100339.25
2023-04-16T08:14:34.560Z,100328.72
2023-04-16T08:17:37.885Z,100342.22
2023-04-16T08:20:40.209Z,100346.19
2023-04-16T08:23:42.542Z,100325.44
2023-04-16T08:26:44.865Z,100339.19
2023-04-16T08:29:48.532Z,100337.53
2023-04-16T08:32:50.982Z,100339.16
2023-04-16T08:35:53.349Z,100342.38
2023-04-16T08:38:56.885Z,100348.78
2023-04-16T08:42:01.736Z,100342.59
2023-04-16T08:45:13.353Z,100356.25
2023-04-16T08:48:15.862Z,100351.44
2023-04-16T08:51:21.185Z,100342.41
2023-04-16T08:54:56.546Z,100335.66
2023-04-16T08:58:01.479Z,100359.88
2023-04-16T09:01:04.251Z,100362.41
2023-04-16T09:04:07.355Z,100371.69
2023-04-16T09:07:10.923Z,100373.06
2023-04-16T09:10:15.446Z,100367.13
2023-04-16T09:13:20.761Z,100372.59
2023-04-16T09:16:25.004Z,100376.91
2023-04-16T09:19:27.645Z,100375.16
2023-04-16T09:22:29.902Z,100373.06
2023-04-16T09:25:35.788Z,100371.19
2023-04-16T09:28:42.752Z,100380.72
2023-04-16T09:32:02.884Z,100379.84
2023-04-16T09:35:05.692Z,100381.19
2023-04-16T09:38:07.992Z,100385.16
2023-04-16T09:41:10.418Z,100390.13
2023-04-16T09:44:12.724Z,100374.59
2023-04-16T09:47:15.025Z,100368.91
2023-04-16T09:50:19.565Z,100384.31
2023-04-16T09:53:29.764Z,100392.44
2023-04-16T09:56:32.011Z,100388.50
2023-04-16T09:59:35.872Z,100391.38
2023-04-16T10:02:43.423Z,100391.75
2023-04-16T10:05:46.012Z,100387.47
2023-04-16T10:08:50.246Z,100383.19
2023-04-16T10:11:52.922Z,100380.69
2023-04-16T10:14:55.216Z,100378.13
2023-04-16T10:17:58.874Z,100387.53
2023-04-16T10:21:02.061Z,100375.31
2023-04-16T10:24:04.762Z,100380.78
2023-04-16T10:27:07.123Z,100371.72
2023-04-16T10:30:11.164Z,100374.41
2023-04-16T10:33:14.346Z,100365.34
2023-04-16T10:36:24.581Z,100372.16
2023-04-16T10:39:29.533Z,100371.41
2023-04-16T10:42:31.939Z,100373.44
2023-04-16T10:45:39.967Z,100366.41
2023-04-16T10:48:49.665Z,100357.50
2023-04-16T10:52:02.495Z,100367.78
2023-04-16T10:55:05.242Z,100354.00
2023-04-16T10:58:27.996Z,100349.88
2023-04-16T11:01:32.546Z,100346.41
2023-04-16T11:04:37.629Z,100346.63
2023-04-16T11:07:49.606Z,100339.53
2023-04-16T11:10:52.489Z,100345.06
2023-04-16T11:13:57.578Z,100337.44
2023-04-16T11:17:03.791Z,100341.72
2023-04-16T11:20:17.465Z,100340.38
2023-04-16T11:23:22.648Z,100342.91
2023-04-16T11:26:27.551Z,100337.66
2023-04-16T11:29:29.870Z,100341.03
2023-04-16T11:32:33.910Z,100332.94
2023-04-16T11:35:36.420Z,100318.78
2023-04-16T11:38:41.099Z,100331.66
2023-04-16T11:41:52.345Z,100331.88
2023-04-16T11:44:56.379Z,100315.38
2023-04-16T11:47:58.750Z,100322.25
2023-04-16T11:51:01.138Z,100327.66
2023-04-16T11:54:03.528Z,100318.38
2023-04-16T11:57:06.276Z,100319.38
2023-04-16T12:00:13.007Z,100318.84
2023-04-16T12:03:15.669Z,100307.75
2023-04-16T12:06:18.162Z,100318.50
2023-04-16T12:09:27.471Z,100316.78
2023-04-16T12:12:32.267Z,100311.53
2023-04-16T12:15:51.995Z,100311.72
2023-04-16T12:19:04.998Z,100308.56
2023-04-16T12:22:07.244Z,100294.75
2023-04-16T12:25:15.144Z,100302.13
2023-04-16T12:28:34.771Z,100316.19
2023-04-16T12:31:38.310Z,100300.88
2023-04-16T12:34:51.387Z,100305.34
2023-04-16T12:37:53.743Z,100299.47
2023-04-16T12:40:57.745Z,100296.53
2023-04-16T12:44:13.002Z,100296.75
2023-04-16T12:47:15.395Z,100269.81
2023-04-16T12:50:18.441Z,100277.94
2023-04-16T12:53:20.903Z,100286.59
2023-04-16T12:56:23.327Z,100278.34
2023-04-16T12:59:25.855Z,100282.03
2023-04-16T13:02:28.458Z,100282.50
2023-04-16T13:05:30.906Z,100280.31
2023-04-16T13:08:33.340Z,100275.41
2023-04-16T13:11:35.800Z,100267.69
2023-04-16T13:14:38.710Z,100264.59
2023-04-16T13:17:40.974Z,100265.41
2023-04-16T13:20:43.881Z,100267.66
2023-04-16T13:23:46.245Z,100262.41
2023-04-16T13:26:48.549Z,100247.03
2023-04-16T13:29:50.970Z,100251.09
2023-04-16T13:32:53.372Z,100244.34
2023-04-16T13:35:55.875Z,100246.31
2023-04-16T13:38:59.384Z,100259.00
2023-04-16T13:42:01.961Z,100246.03
2023-04-16T13:45:04.475Z,100249.66
2023-04-16T13:48:06.830Z,100253.59
2023-04-16T13:51:09.113Z,100246.66
2023-04-16T13:54:11.469Z,100238.59
2023-04-16T13:57:13.890Z,100244.00
2023-04-16T14:00:16.978Z,100232.59
2023-04-16T14:03:19.359Z,100233.53
2023-04-16T14:06:21.772Z,100232.72
2023-04-16T14:09:24.477Z,100227.47
2023-04-16T14:12:27.742Z,100232.81
2023-04-16T14:15:30.180Z,100232.56
2023-04-16T14:18:32.487Z,100225.47
2023-04-16T14:21:34.917Z,100233.00
2023-04-16T14:24:37.182Z,100238.06
2023-04-16T14:27:39.723Z,100233.44
2023-04-16T14:30:41.961Z,100221.72
2023-04-16T14:33:44.287Z,100228.00
2023-04-16T14:36:46.654Z,100223.53
2023-04-16T14:39:49.152Z,100217.72
2023-04-16T14:42:51.474Z,100211.81
2023-04-16T14:45:53.746Z,100205.72
2023-04-16T14:48:56.179Z,100218.31
2023-04-16T14:51:58.468Z,100208.50
2023-04-16T14:55:00.888Z,100222.22
2023-04-16T14:58:03.230Z,100218.06
2023-04-16T15:01:05.578Z,100214.75
